Airfield :
LOGIN :

Register | Disclaimer

   EN    FR    IT 

 










Legend :    VFR   Marginal VFR   IFR   Intensive IFR   Very Intensive IFR
Visi :
Ceiling :
>= 8 km
>= 3000ft
5 to 8 km
1000 to 3000 ft
1500m to 5 km
500 to 1000 ft
800 to 1500m
200 to 500 ft
< 800m
< 200 ft
Symbols :   Thunderstorms  Fog  Heavy snow  Heavy precipitations  Wind > 20 kt
SIGMETs :     Misc.  Thunderstorms  Icing  Turbulence  Mountain Waves  Volcanic Ashes






- Airport Elevation : 1115 ft
- IATA code : GRZ


LOWG - Graz

CURRENT METAR :
  • 121820Z AUTO 23003KT 180V270 5000 SHRA FEW006 SCT008 BKN012 07/06 Q1004 TEMPO 4000 SHRA BR BKN009

EXPIRED METARs :
  • 121750Z 25003KT 210V290 6000 -RA FEW003 SCT007 OVC012 07/06 Q1004 TEMPO 4000 SHRA BKN009
  • 121720Z VRB01KT 6000 -RA FEW003 BKN009 OVC012 07/06 Q1003 RERA TEMPO 4000 RA BKN012
  • 121650Z VRB02KT 8000 RA FEW003 BKN009 OVC012 07/06 Q1004 TEMPO 4000 -RA BKN012
  • 121620Z 02003KT 8000 -RA FEW003 BKN009 OVC012 07/06 Q1003 RERA TEMPO BKN012
  • 121550Z 03005KT 8000 -RA FEW003 SCT009 BKN012 07/06 Q1004 TEMPO 4500 RA BKN008

TAF TAF LOWG
Valid from the 12 at 18:00 until the 13 at 18:00 UTC


121715Z 1218/1318 05003KT 8000 FEW003 SCT012 BKN040 TX08/1311Z TN06/1301Z
TEMPO 1218/1220 4000 RA BKN007
TEMPO 1220/1301 -RA BKN005
TEMPO 1301/1316 4000 SHRA BKN008
BECMG 1313/1315 35010G20KT FEW012 SCT050 BKN060



MET'MAP, your aeronautical weather chart ! - Copyright ORBIFLY December 2007 - Disclaimer

ORBIFLY MET'MAP TEAM :

Programming & Development : Alexandra Zaïnal
Concept & Development : Baudouin d'Aumeries
Co-Development & Prog : Marc-Olivier Méhu
Technical & hardware support : Manuel Goepfert

Contact : metmap@orbifly.com




SOURCES & CREDITS :

   NOAA